![]() |
EMODnet Physics ERDDAP
Easier access to scientific data |
log in|
Brought to you by EMODnet Physics |
| Dataset Title: | NDBC - Collection of dew point temperature (DEWT) TimeSeries - IN SITU MultiPointTimeSeriesObservation
|
| Institution: | NDBC (Dataset ID: TS_DEWT_NDBC) |
| Information: | Summary
| License
| FGDC
| ISO 19115
| Metadata
| Background
| Subset
| Data Access Form
| Make a graph
|
| Name | Last modified | Size | Description | |
|---|---|---|---|---|
| Parent Directory | - | - | ||
| 46077_TS_DEWT_012006.nc | 27-Oct-2024 00:48 | 429094 | ||
| 46077_TS_DEWT_012007.nc | 27-Oct-2024 00:48 | 429112 | ||
| 46077_TS_DEWT_012008.nc | 27-Oct-2024 00:48 | 429418 | ||
| 46077_TS_DEWT_012009.nc | 27-Oct-2024 00:48 | 429500 | ||
| 46077_TS_DEWT_012011.nc | 27-Oct-2024 00:48 | 429497 | ||
| 46077_TS_DEWT_012012.nc | 27-Oct-2024 00:48 | 429652 | ||
| 46077_TS_DEWT_012013.nc | 27-Oct-2024 00:48 | 428981 | ||
| 46077_TS_DEWT_012014.nc | 27-Oct-2024 00:48 | 429379 | ||
| 46077_TS_DEWT_012018.nc | 27-Oct-2024 00:48 | 429773 | ||
| 46077_TS_DEWT_012019.nc | 27-Oct-2024 00:48 | 429843 | ||
| 46077_TS_DEWT_012020.nc | 27-Oct-2024 00:48 | 429838 | ||
| 46077_TS_DEWT_012021.nc | 27-Oct-2024 00:48 | 429839 | ||
| 46077_TS_DEWT_012022.nc | 27-Oct-2024 00:48 | 429798 | ||
| 46077_TS_DEWT_012023.nc | 27-Oct-2024 00:49 | 429839 | ||
| 46077_TS_DEWT_012024.nc | 27-Oct-2024 00:49 | 429839 | ||
| 46077_TS_DEWT_012026.nc | 02-Feb-2026 18:57 | 429818 | ||
| 46077_TS_DEWT_022006.nc | 27-Oct-2024 00:49 | 429584 | ||
| 46077_TS_DEWT_022007.nc | 27-Oct-2024 00:49 | 429839 | ||
| 46077_TS_DEWT_022008.nc | 27-Oct-2024 00:49 | 429840 | ||
| 46077_TS_DEWT_022009.nc | 27-Oct-2024 00:49 | 429839 | ||
| 46077_TS_DEWT_022011.nc | 27-Oct-2024 00:49 | 429612 | ||
| 46077_TS_DEWT_022012.nc | 27-Oct-2024 00:49 | 429822 | ||
| 46077_TS_DEWT_022013.nc | 27-Oct-2024 00:49 | 430000 | ||
| 46077_TS_DEWT_022014.nc | 27-Oct-2024 00:49 | 429283 | ||
| 46077_TS_DEWT_022018.nc | 27-Oct-2024 00:49 | 429021 | ||
| 46077_TS_DEWT_022019.nc | 27-Oct-2024 00:49 | 429798 | ||
| 46077_TS_DEWT_022020.nc | 27-Oct-2024 00:49 | 429729 | ||
| 46077_TS_DEWT_022021.nc | 27-Oct-2024 00:49 | 429918 | ||
| 46077_TS_DEWT_022022.nc | 27-Oct-2024 00:49 | 429695 | ||
| 46077_TS_DEWT_022023.nc | 27-Oct-2024 00:49 | 429805 | ||
| 46077_TS_DEWT_022024.nc | 16-Sep-2024 16:51 | 428981 | ||
| 46077_TS_DEWT_022026.nc | 01-Mar-2026 09:49 | 429420 | ||
| 46077_TS_DEWT_032006.nc | 27-Oct-2024 00:50 | 428026 | ||
| 46077_TS_DEWT_032007.nc | 27-Oct-2024 00:50 | 429897 | ||
| 46077_TS_DEWT_032008.nc | 27-Oct-2024 00:50 | 429790 | ||
| 46077_TS_DEWT_032009.nc | 27-Oct-2024 00:50 | 429735 | ||
| 46077_TS_DEWT_032011.nc | 27-Oct-2024 00:50 | 429700 | ||
| 46077_TS_DEWT_032012.nc | 27-Oct-2024 00:50 | 429108 | ||
| 46077_TS_DEWT_032013.nc | 27-Oct-2024 00:50 | 428663 | ||
| 46077_TS_DEWT_032014.nc | 27-Oct-2024 00:50 | 429004 | ||
| 46077_TS_DEWT_032018.nc | 27-Oct-2024 00:50 | 428890 | ||
| 46077_TS_DEWT_032019.nc | 27-Oct-2024 00:50 | 427327 | ||
| 46077_TS_DEWT_032020.nc | 27-Oct-2024 00:50 | 428552 | ||
| 46077_TS_DEWT_032021.nc | 27-Oct-2024 00:50 | 429244 | ||
| 46077_TS_DEWT_032022.nc | 27-Oct-2024 00:50 | 428872 | ||
| 46077_TS_DEWT_032023.nc | 27-Oct-2024 00:50 | 427957 | ||
| 46077_TS_DEWT_032026.nc | 21-Mar-2026 11:32 | 428697 | ||
| 46077_TS_DEWT_042006.nc | 27-Oct-2024 00:50 | 428840 | ||
| 46077_TS_DEWT_042007.nc | 27-Oct-2024 00:50 | 427710 | ||
| 46077_TS_DEWT_042008.nc | 27-Oct-2024 00:50 | 428592 | ||
| 46077_TS_DEWT_042009.nc | 27-Oct-2024 00:51 | 423175 | ||
| 46077_TS_DEWT_042011.nc | 27-Oct-2024 00:51 | 428874 | ||
| 46077_TS_DEWT_042012.nc | 27-Oct-2024 00:51 | 428561 | ||
| 46077_TS_DEWT_042013.nc | 27-Oct-2024 00:51 | 429011 | ||
| 46077_TS_DEWT_042014.nc | 27-Oct-2024 00:51 | 428765 | ||
| 46077_TS_DEWT_042018.nc | 27-Oct-2024 00:51 | 428648 | ||
| 46077_TS_DEWT_042019.nc | 27-Oct-2024 00:51 | 428240 | ||
| 46077_TS_DEWT_042020.nc | 27-Oct-2024 00:51 | 429913 | ||
| 46077_TS_DEWT_042021.nc | 27-Oct-2024 00:51 | 429813 | ||
| 46077_TS_DEWT_042022.nc | 27-Oct-2024 00:51 | 429875 | ||
| 46077_TS_DEWT_042023.nc | 27-Oct-2024 00:51 | 429701 | ||
| 46077_TS_DEWT_052006.nc | 27-Oct-2024 00:51 | 429917 | ||
| 46077_TS_DEWT_052007.nc | 27-Oct-2024 00:51 | 429900 | ||
| 46077_TS_DEWT_052008.nc | 27-Oct-2024 00:51 | 429919 | ||
| 46077_TS_DEWT_052009.nc | 27-Oct-2024 00:51 | 429460 | ||
| 46077_TS_DEWT_052011.nc | 27-Oct-2024 00:51 | 426063 | ||
| 46077_TS_DEWT_052012.nc | 27-Oct-2024 00:52 | 429018 | ||
| 46077_TS_DEWT_052013.nc | 27-Oct-2024 00:52 | 429120 | ||
| 46077_TS_DEWT_052014.nc | 27-Oct-2024 00:52 | 429840 | ||
| 46077_TS_DEWT_052018.nc | 27-Oct-2024 00:52 | 429777 | ||
| 46077_TS_DEWT_052019.nc | 27-Oct-2024 00:52 | 429920 | ||
| 46077_TS_DEWT_052020.nc | 27-Oct-2024 00:52 | 422392 | ||
| 46077_TS_DEWT_052021.nc | 27-Oct-2024 00:52 | 429611 | ||
| 46077_TS_DEWT_052022.nc | 27-Oct-2024 00:52 | 429896 | ||
| 46077_TS_DEWT_052023.nc | 27-Oct-2024 00:52 | 425204 | ||
| 46077_TS_DEWT_062006.nc | 27-Oct-2024 00:52 | 429573 | ||
| 46077_TS_DEWT_062007.nc | 27-Oct-2024 00:52 | 429506 | ||
| 46077_TS_DEWT_062008.nc | 27-Oct-2024 00:52 | 429462 | ||
| 46077_TS_DEWT_062009.nc | 27-Oct-2024 00:52 | 429460 | ||
| 46077_TS_DEWT_062010.nc | 27-Oct-2024 00:52 | 429503 | ||
| 46077_TS_DEWT_062011.nc | 27-Oct-2024 00:53 | 429491 | ||
| 46077_TS_DEWT_062012.nc | 27-Oct-2024 00:53 | 429061 | ||
| 46077_TS_DEWT_062013.nc | 27-Oct-2024 00:53 | 428625 | ||
| 46077_TS_DEWT_062014.nc | 27-Oct-2024 00:53 | 429557 | ||
| 46077_TS_DEWT_062017.nc | 27-Oct-2024 00:53 | 429441 | ||
| 46077_TS_DEWT_062018.nc | 27-Oct-2024 00:53 | 429170 | ||
| 46077_TS_DEWT_062019.nc | 27-Oct-2024 00:53 | 418875 | ||
| 46077_TS_DEWT_062020.nc | 27-Oct-2024 00:53 | 429435 | ||
| 46077_TS_DEWT_062021.nc | 27-Oct-2024 00:53 | 429505 | ||
| 46077_TS_DEWT_062022.nc | 27-Oct-2024 00:53 | 429899 | ||
| 46077_TS_DEWT_062023.nc | 27-Oct-2024 00:53 | 429469 | ||
| 46077_TS_DEWT_062025.nc | 01-Jul-2025 03:44 | 429248 | ||
| 46077_TS_DEWT_072006.nc | 27-Oct-2024 00:53 | 429607 | ||
| 46077_TS_DEWT_072007.nc | 27-Oct-2024 00:53 | 429914 | ||
| 46077_TS_DEWT_072008.nc | 27-Oct-2024 00:53 | 429890 | ||
| 46077_TS_DEWT_072009.nc | 27-Oct-2024 00:53 | 429920 | ||
| 46077_TS_DEWT_072010.nc | 27-Oct-2024 00:53 | 429380 | ||
| 46077_TS_DEWT_072011.nc | 27-Oct-2024 00:53 | 429535 | ||
| 46077_TS_DEWT_072012.nc | 27-Oct-2024 00:54 | 429730 | ||
| 46077_TS_DEWT_072013.nc | 27-Oct-2024 00:54 | 428916 | ||
| 46077_TS_DEWT_072014.nc | 27-Oct-2024 00:54 | 429921 | ||
| 46077_TS_DEWT_072017.nc | 27-Oct-2024 00:54 | 429770 | ||
| 46077_TS_DEWT_072018.nc | 27-Oct-2024 00:54 | 429480 | ||
| 46077_TS_DEWT_072019.nc | 27-Oct-2024 00:54 | 420381 | ||
| 46077_TS_DEWT_072020.nc | 27-Oct-2024 00:54 | 428888 | ||
| 46077_TS_DEWT_072021.nc | 27-Oct-2024 00:54 | 429476 | ||
| 46077_TS_DEWT_072022.nc | 27-Oct-2024 00:54 | 429070 | ||
| 46077_TS_DEWT_072023.nc | 27-Oct-2024 00:54 | 429520 | ||
| 46077_TS_DEWT_072025.nc | 16-Aug-2025 03:40 | 429474 | ||
| 46077_TS_DEWT_082006.nc | 27-Oct-2024 00:54 | 429568 | ||
| 46077_TS_DEWT_082007.nc | 27-Oct-2024 00:54 | 421491 | ||
| 46077_TS_DEWT_082008.nc | 27-Oct-2024 00:54 | 429525 | ||
| 46077_TS_DEWT_082009.nc | 27-Oct-2024 00:54 | 428974 | ||
| 46077_TS_DEWT_082010.nc | 27-Oct-2024 00:54 | 429267 | ||
| 46077_TS_DEWT_082011.nc | 27-Oct-2024 00:55 | 428849 | ||
| 46077_TS_DEWT_082012.nc | 27-Oct-2024 00:55 | 429566 | ||
| 46077_TS_DEWT_082013.nc | 27-Oct-2024 00:55 | 429297 | ||
| 46077_TS_DEWT_082014.nc | 27-Oct-2024 00:55 | 429451 | ||
| 46077_TS_DEWT_082017.nc | 27-Oct-2024 00:55 | 429536 | ||
| 46077_TS_DEWT_082018.nc | 27-Oct-2024 00:55 | 427115 | ||
| 46077_TS_DEWT_082019.nc | 27-Oct-2024 00:55 | 429473 | ||
| 46077_TS_DEWT_082020.nc | 27-Oct-2024 00:55 | 429636 | ||
| 46077_TS_DEWT_082021.nc | 27-Oct-2024 00:55 | 429921 | ||
| 46077_TS_DEWT_082022.nc | 27-Oct-2024 00:55 | 418875 | ||
| 46077_TS_DEWT_082023.nc | 27-Oct-2024 00:55 | 429887 | ||
| 46077_TS_DEWT_082025.nc | 01-Sep-2025 03:52 | 429897 | ||
| 46077_TS_DEWT_092006.nc | 27-Oct-2024 00:55 | 429829 | ||
| 46077_TS_DEWT_092007.nc | 27-Oct-2024 00:55 | 429820 | ||
| 46077_TS_DEWT_092008.nc | 27-Oct-2024 00:55 | 429731 | ||
| 46077_TS_DEWT_092009.nc | 27-Oct-2024 00:55 | 429498 | ||
| 46077_TS_DEWT_092010.nc | 27-Oct-2024 00:55 | 424841 | ||
| 46077_TS_DEWT_092011.nc | 27-Oct-2024 00:55 | 429903 | ||
| 46077_TS_DEWT_092012.nc | 27-Oct-2024 00:56 | 425996 | ||
| 46077_TS_DEWT_092013.nc | 27-Oct-2024 00:56 | 429914 | ||
| 46077_TS_DEWT_092014.nc | 27-Oct-2024 00:56 | 429903 | ||
| 46077_TS_DEWT_092017.nc | 27-Oct-2024 00:56 | 429729 | ||
| 46077_TS_DEWT_092018.nc | 27-Oct-2024 00:56 | 429865 | ||
| 46077_TS_DEWT_092019.nc | 27-Oct-2024 00:56 | 429863 | ||
| 46077_TS_DEWT_092020.nc | 27-Oct-2024 00:56 | 428709 | ||
| 46077_TS_DEWT_092021.nc | 27-Oct-2024 00:56 | 429846 | ||
| 46077_TS_DEWT_092022.nc | 27-Oct-2024 00:56 | 429915 | ||
| 46077_TS_DEWT_092023.nc | 27-Oct-2024 00:56 | 429867 | ||
| 46077_TS_DEWT_092025.nc | 01-Oct-2025 03:14 | 429917 | ||
| 46077_TS_DEWT_102005.nc | 27-Oct-2024 00:56 | 429709 | ||
| 46077_TS_DEWT_102006.nc | 27-Oct-2024 00:56 | 429848 | ||
| 46077_TS_DEWT_102007.nc | 27-Oct-2024 00:56 | 429620 | ||
| 46077_TS_DEWT_102008.nc | 27-Oct-2024 00:56 | 429589 | ||
| 46077_TS_DEWT_102009.nc | 27-Oct-2024 00:56 | 429335 | ||
| 46077_TS_DEWT_102010.nc | 27-Oct-2024 00:56 | 429897 | ||
| 46077_TS_DEWT_102011.nc | 27-Oct-2024 00:56 | 424361 | ||
| 46077_TS_DEWT_102012.nc | 27-Oct-2024 00:56 | 429869 | ||
| 46077_TS_DEWT_102013.nc | 27-Oct-2024 00:56 | 428526 | ||
| 46077_TS_DEWT_102014.nc | 27-Oct-2024 00:57 | 429775 | ||
| 46077_TS_DEWT_102017.nc | 27-Oct-2024 00:57 | 428937 | ||
| 46077_TS_DEWT_102018.nc | 27-Oct-2024 00:57 | 427676 | ||
| 46077_TS_DEWT_102019.nc | 27-Oct-2024 00:57 | 425836 | ||
| 46077_TS_DEWT_102020.nc | 27-Oct-2024 00:57 | 429339 | ||
| 46077_TS_DEWT_102021.nc | 27-Oct-2024 00:57 | 427443 | ||
| 46077_TS_DEWT_102022.nc | 27-Oct-2024 00:57 | 429535 | ||
| 46077_TS_DEWT_102023.nc | 27-Oct-2024 00:57 | 429447 | ||
| 46077_TS_DEWT_102025.nc | 01-Nov-2025 04:15 | 429537 | ||
| 46077_TS_DEWT_112005.nc | 27-Oct-2024 00:57 | 429338 | ||
| 46077_TS_DEWT_112006.nc | 27-Oct-2024 00:57 | 429206 | ||
| 46077_TS_DEWT_112007.nc | 27-Oct-2024 00:57 | 429115 | ||
| 46077_TS_DEWT_112008.nc | 27-Oct-2024 00:57 | 429575 | ||
| 46077_TS_DEWT_112009.nc | 27-Oct-2024 00:57 | 429500 | ||
| 46077_TS_DEWT_112010.nc | 27-Oct-2024 00:57 | 429569 | ||
| 46077_TS_DEWT_112011.nc | 27-Oct-2024 00:57 | 429556 | ||
| 46077_TS_DEWT_112012.nc | 27-Oct-2024 00:57 | 429522 | ||
| 46077_TS_DEWT_112013.nc | 27-Oct-2024 00:57 | 429050 | ||
| 46077_TS_DEWT_112014.nc | 27-Oct-2024 00:57 | 425503 | ||
| 46077_TS_DEWT_112017.nc | 27-Oct-2024 00:57 | 429682 | ||
| 46077_TS_DEWT_112018.nc | 27-Oct-2024 00:57 | 429489 | ||
| 46077_TS_DEWT_112019.nc | 27-Oct-2024 00:57 | 429817 | ||
| 46077_TS_DEWT_112020.nc | 27-Oct-2024 00:58 | 429898 | ||
| 46077_TS_DEWT_112021.nc | 27-Oct-2024 00:58 | 429834 | ||
| 46077_TS_DEWT_112022.nc | 27-Oct-2024 00:58 | 429771 | ||
| 46077_TS_DEWT_112023.nc | 27-Oct-2024 00:58 | 429899 | ||
| 46077_TS_DEWT_112025.nc | 01-Dec-2025 05:25 | 429277 | ||
| 46077_TS_DEWT_122005.nc | 27-Oct-2024 00:58 | 429265 | ||
| 46077_TS_DEWT_122006.nc | 27-Oct-2024 00:58 | 429707 | ||
| 46077_TS_DEWT_122007.nc | 27-Oct-2024 00:58 | 429575 | ||
| 46077_TS_DEWT_122008.nc | 27-Oct-2024 00:58 | 429918 | ||
| 46077_TS_DEWT_122010.nc | 27-Oct-2024 00:58 | 429708 | ||
| 46077_TS_DEWT_122011.nc | 27-Oct-2024 00:58 | 429899 | ||
| 46077_TS_DEWT_122012.nc | 27-Oct-2024 00:58 | 429894 | ||
| 46077_TS_DEWT_122013.nc | 27-Oct-2024 00:58 | 429301 | ||
| 46077_TS_DEWT_122014.nc | 27-Oct-2024 00:58 | 429896 | ||
| 46077_TS_DEWT_122017.nc | 27-Oct-2024 00:58 | 429271 | ||
| 46077_TS_DEWT_122018.nc | 27-Oct-2024 00:58 | 429574 | ||
| 46077_TS_DEWT_122019.nc | 27-Oct-2024 00:58 | 429152 | ||
| 46077_TS_DEWT_122020.nc | 27-Oct-2024 00:58 | 426466 | ||
| 46077_TS_DEWT_122021.nc | 27-Oct-2024 00:59 | 429549 | ||
| 46077_TS_DEWT_122022.nc | 27-Oct-2024 00:59 | 429415 | ||
| 46077_TS_DEWT_122023.nc | 27-Oct-2024 00:59 | 429537 | ||
| 46077_TS_DEWT_122025.nc | 01-Jan-2026 07:03 | 428722 | ||